sensor_id;sensor_type;location;lat;lon;timestamp;P1;durP1;ratioP1;P2;durP2;ratioP2
48199;SDS011;33990;44.602;10.976;2024-02-21T00:00:11;15.65;;;14.15;;
48199;SDS011;33990;44.602;10.976;2024-02-21T00:02:38;14.77;;;13.38;;
48199;SDS011;33990;44.602;10.976;2024-02-21T00:05:06;15.65;;;14.13;;
48199;SDS011;33990;44.602;10.976;2024-02-21T00:07:34;16.58;;;14.77;;
48199;SDS011;33990;44.602;10.976;2024-02-21T00:10:01;17.33;;;14.48;;
48199;SDS011;33990;44.602;10.976;2024-02-21T00:12:30;14.02;;;12.63;;
48199;SDS011;33990;44.602;10.976;2024-02-21T00:14:57;15.35;;;13.15;;
48199;SDS011;33990;44.602;10.976;2024-02-21T00:17:25;16.15;;;14.55;;
48199;SDS011;33990;44.602;10.976;2024-02-21T00:19:53;17.13;;;15.43;;
48199;SDS011;33990;44.602;10.976;2024-02-21T00:22:20;16.88;;;15.18;;
48199;SDS011;33990;44.602;10.976;2024-02-21T00:24:48;15.60;;;14.00;;
48199;SDS011;33990;44.602;10.976;2024-02-21T00:27:15;15.07;;;13.57;;
48199;SDS011;33990;44.602;10.976;2024-02-21T00:29:42;15.35;;;13.75;;
48199;SDS011;33990;44.602;10.976;2024-02-21T00:32:10;15.98;;;14.23;;
48199;SDS011;33990;44.602;10.976;2024-02-21T00:34:38;16.55;;;13.13;;
48199;SDS011;33990;44.602;10.976;2024-02-21T00:37:05;16.17;;;14.48;;
48199;SDS011;33990;44.602;10.976;2024-02-21T00:39:33;16.67;;;14.98;;
48199;SDS011;33990;44.602;10.976;2024-02-21T00:42:00;16.63;;;14.90;;
48199;SDS011;33990;44.602;10.976;2024-02-21T00:44:28;15.30;;;13.68;;
48199;SDS011;33990;44.602;10.976;2024-02-21T00:46:55;16.85;;;15.13;;
48199;SDS011;33990;44.602;10.976;2024-02-21T00:49:23;15.95;;;14.35;;
48199;SDS011;33990;44.602;10.976;2024-02-21T00:51:50;15.02;;;13.55;;
48199;SDS011;33990;44.602;10.976;2024-02-21T00:54:17;14.65;;;13.15;;
48199;SDS011;33990;44.602;10.976;2024-02-21T00:56:45;14.93;;;13.40;;
48199;SDS011;33990;44.602;10.976;2024-02-21T00:59:12;14.90;;;13.48;;
48199;SDS011;33990;44.602;10.976;2024-02-21T01:01:39;15.20;;;13.52;;
48199;SDS011;33990;44.602;10.976;2024-02-21T01:04:10;14.43;;;12.90;;
48199;SDS011;33990;44.602;10.976;2024-02-21T01:06:37;14.85;;;13.45;;
48199;SDS011;33990;44.602;10.976;2024-02-21T01:09:05;13.95;;;12.27;;
48199;SDS011;33990;44.602;10.976;2024-02-21T01:11:32;15.65;;;13.45;;
48199;SDS011;33990;44.602;10.976;2024-02-21T01:13:59;15.13;;;13.52;;
48199;SDS011;33990;44.602;10.976;2024-02-21T01:16:27;14.52;;;13.02;;
48199;SDS011;33990;44.602;10.976;2024-02-21T01:18:54;13.90;;;12.38;;
48199;SDS011;33990;44.602;10.976;2024-02-21T01:21:22;15.57;;;13.20;;
48199;SDS011;33990;44.602;10.976;2024-02-21T01:23:49;14.30;;;12.90;;
48199;SDS011;33990;44.602;10.976;2024-02-21T01:26:16;14.95;;;13.40;;
48199;SDS011;33990;44.602;10.976;2024-02-21T01:28:45;14.93;;;13.32;;
48199;SDS011;33990;44.602;10.976;2024-02-21T01:31:12;15.68;;;14.07;;
48199;SDS011;33990;44.602;10.976;2024-02-21T01:33:40;15.00;;;13.50;;
48199;SDS011;33990;44.602;10.976;2024-02-21T01:36:08;14.60;;;13.20;;
48199;SDS011;33990;44.602;10.976;2024-02-21T01:38:36;13.15;;;11.85;;
48199;SDS011;33990;44.602;10.976;2024-02-21T01:41:03;14.70;;;13.15;;
48199;SDS011;33990;44.602;10.976;2024-02-21T01:43:31;13.93;;;12.52;;
48199;SDS011;33990;44.602;10.976;2024-02-21T01:45:58;14.45;;;12.98;;
48199;SDS011;33990;44.602;10.976;2024-02-21T01:48:26;15.18;;;13.60;;
48199;SDS011;33990;44.602;10.976;2024-02-21T01:50:54;15.13;;;13.60;;
48199;SDS011;33990;44.602;10.976;2024-02-21T01:53:24;13.93;;;12.40;;
48199;SDS011;33990;44.602;10.976;2024-02-21T01:56:05;14.93;;;13.35;;
48199;SDS011;33990;44.602;10.976;2024-02-21T01:58:33;16.10;;;13.15;;
48199;SDS011;33990;44.602;10.976;2024-02-21T02:01:07;15.18;;;13.43;;
48199;SDS011;33990;44.602;10.976;2024-02-21T02:03:35;15.35;;;13.75;;
48199;SDS011;33990;44.602;10.976;2024-02-21T02:06:04;14.52;;;13.10;;
48199;SDS011;33990;44.602;10.976;2024-02-21T02:08:33;13.90;;;12.52;;
48199;SDS011;33990;44.602;10.976;2024-02-21T02:11:01;15.13;;;13.02;;
48199;SDS011;33990;44.602;10.976;2024-02-21T02:13:29;15.27;;;13.60;;
48199;SDS011;33990;44.602;10.976;2024-02-21T02:15:56;14.25;;;12.75;;
48199;SDS011;33990;44.602;10.976;2024-02-21T02:18:23;13.88;;;12.38;;
48199;SDS011;33990;44.602;10.976;2024-02-21T02:20:51;14.13;;;12.63;;
48199;SDS011;33990;44.602;10.976;2024-02-21T02:23:21;13.77;;;12.50;;
48199;SDS011;33990;44.602;10.976;2024-02-21T02:25:48;14.93;;;13.35;;
48199;SDS011;33990;44.602;10.976;2024-02-21T02:28:19;16.25;;;13.25;;
48199;SDS011;33990;44.602;10.976;2024-02-21T02:30:47;14.55;;;13.05;;
48199;SDS011;33990;44.602;10.976;2024-02-21T02:33:15;14.73;;;13.23;;
48199;SDS011;33990;44.602;10.976;2024-02-21T02:35:45;13.95;;;12.55;;
48199;SDS011;33990;44.602;10.976;2024-02-21T02:38:13;13.70;;;12.30;;
48199;SDS011;33990;44.602;10.976;2024-02-21T02:40:41;14.23;;;12.38;;
48199;SDS011;33990;44.602;10.976;2024-02-21T02:43:09;14.55;;;13.05;;
48199;SDS011;33990;44.602;10.976;2024-02-21T02:45:37;13.15;;;11.88;;
48199;SDS011;33990;44.602;10.976;2024-02-21T02:48:04;13.07;;;11.77;;
48199;SDS011;33990;44.602;10.976;2024-02-21T02:50:32;14.00;;;12.63;;
48199;SDS011;33990;44.602;10.976;2024-02-21T02:52:59;13.38;;;12.00;;
48199;SDS011;33990;44.602;10.976;2024-02-21T02:55:27;14.75;;;11.95;;
48199;SDS011;33990;44.602;10.976;2024-02-21T02:57:54;12.70;;;11.43;;
48199;SDS011;33990;44.602;10.976;2024-02-21T03:00:22;13.30;;;12.00;;
48199;SDS011;33990;44.602;10.976;2024-02-21T03:02:50;13.50;;;12.13;;
48199;SDS011;33990;44.602;10.976;2024-02-21T03:05:19;12.95;;;11.68;;
48199;SDS011;33990;44.602;10.976;2024-02-21T03:07:48;13.60;;;12.20;;
48199;SDS011;33990;44.602;10.976;2024-02-21T03:10:16;13.02;;;11.30;;
48199;SDS011;33990;44.602;10.976;2024-02-21T03:12:45;12.77;;;11.57;;
48199;SDS011;33990;44.602;10.976;2024-02-21T03:15:13;12.10;;;10.90;;
48199;SDS011;33990;44.602;10.976;2024-02-21T03:17:41;12.90;;;10.60;;
48199;SDS011;33990;44.602;10.976;2024-02-21T03:20:09;11.73;;;10.52;;
48199;SDS011;33990;44.602;10.976;2024-02-21T03:22:39;11.38;;;10.27;;
48199;SDS011;33990;44.602;10.976;2024-02-21T03:25:08;12.18;;;10.93;;
48199;SDS011;33990;44.602;10.976;2024-02-21T03:27:36;12.25;;;10.98;;
48199;SDS011;33990;44.602;10.976;2024-02-21T03:30:04;12.25;;;11.00;;
48199;SDS011;33990;44.602;10.976;2024-02-21T03:32:32;12.45;;;11.13;;
48199;SDS011;33990;44.602;10.976;2024-02-21T03:34:59;12.30;;;10.88;;
48199;SDS011;33990;44.602;10.976;2024-02-21T03:37:27;12.00;;;10.82;;
48199;SDS011;33990;44.602;10.976;2024-02-21T03:39:55;12.07;;;10.88;;
48199;SDS011;33990;44.602;10.976;2024-02-21T03:42:22;11.40;;;10.30;;
48199;SDS011;33990;44.602;10.976;2024-02-21T03:44:49;11.65;;;10.55;;
48199;SDS011;33990;44.602;10.976;2024-02-21T03:47:17;11.82;;;10.63;;
48199;SDS011;33990;44.602;10.976;2024-02-21T03:49:44;11.48;;;10.27;;
48199;SDS011;33990;44.602;10.976;2024-02-21T03:52:11;10.95;;;9.85;;
48199;SDS011;33990;44.602;10.976;2024-02-21T03:54:39;10.27;;;9.27;;
48199;SDS011;33990;44.602;10.976;2024-02-21T03:57:06;11.80;;;10.43;;
48199;SDS011;33990;44.602;10.976;2024-02-21T03:59:33;10.40;;;9.38;;
48199;SDS011;33990;44.602;10.976;2024-02-21T04:02:01;12.10;;;10.70;;
48199;SDS011;33990;44.602;10.976;2024-02-21T04:04:31;11.13;;;10.00;;
48199;SDS011;33990;44.602;10.976;2024-02-21T04:06:58;11.05;;;9.95;;
48199;SDS011;33990;44.602;10.976;2024-02-21T04:09:26;10.98;;;9.98;;
48199;SDS011;33990;44.602;10.976;2024-02-21T04:11:53;11.32;;;10.23;;
48199;SDS011;33990;44.602;10.976;2024-02-21T04:14:20;11.93;;;10.63;;
48199;SDS011;33990;44.602;10.976;2024-02-21T04:16:47;10.40;;;9.35;;
48199;SDS011;33990;44.602;10.976;2024-02-21T04:19:15;11.88;;;9.85;;
48199;SDS011;33990;44.602;10.976;2024-02-21T04:21:42;11.88;;;10.68;;
48199;SDS011;33990;44.602;10.976;2024-02-21T04:24:10;11.13;;;9.93;;
48199;SDS011;33990;44.602;10.976;2024-02-21T04:26:37;9.80;;;8.80;;
48199;SDS011;33990;44.602;10.976;2024-02-21T04:29:04;9.77;;;8.73;;
48199;SDS011;33990;44.602;10.976;2024-02-21T04:31:32;10.93;;;9.85;;
48199;SDS011;33990;44.602;10.976;2024-02-21T04:34:00;10.02;;;9.02;;
48199;SDS011;33990;44.602;10.976;2024-02-21T04:36:28;11.63;;;10.15;;
48199;SDS011;33990;44.602;10.976;2024-02-21T04:38:55;11.75;;;9.85;;
48199;SDS011;33990;44.602;10.976;2024-02-21T04:41:23;11.30;;;10.13;;
48199;SDS011;33990;44.602;10.976;2024-02-21T04:43:51;10.80;;;9.70;;
48199;SDS011;33990;44.602;10.976;2024-02-21T04:46:18;10.52;;;9.52;;
48199;SDS011;33990;44.602;10.976;2024-02-21T04:48:45;10.85;;;9.55;;
48199;SDS011;33990;44.602;10.976;2024-02-21T04:51:13;10.02;;;9.02;;
48199;SDS011;33990;44.602;10.976;2024-02-21T04:53:40;10.55;;;9.25;;
48199;SDS011;33990;44.602;10.976;2024-02-21T04:56:08;10.82;;;9.73;;
48199;SDS011;33990;44.602;10.976;2024-02-21T04:58:38;11.25;;;8.48;;
48199;SDS011;33990;44.602;10.976;2024-02-21T05:01:06;10.88;;;9.63;;
48199;SDS011;33990;44.602;10.976;2024-02-21T05:03:35;11.98;;;9.27;;
48199;SDS011;33990;44.602;10.976;2024-02-21T05:06:02;9.98;;;8.98;;
48199;SDS011;33990;44.602;10.976;2024-02-21T05:08:30;11.98;;;9.95;;
48199;SDS011;33990;44.602;10.976;2024-02-21T05:10:57;11.10;;;9.45;;
48199;SDS011;33990;44.602;10.976;2024-02-21T05:13:25;9.35;;;8.45;;
48199;SDS011;33990;44.602;10.976;2024-02-21T05:15:53;10.25;;;9.13;;
48199;SDS011;33990;44.602;10.976;2024-02-21T05:18:20;9.80;;;8.90;;
48199;SDS011;33990;44.602;10.976;2024-02-21T05:20:48;12.50;;;9.25;;
48199;SDS011;33990;44.602;10.976;2024-02-21T05:23:15;10.35;;;9.15;;
48199;SDS011;33990;44.602;10.976;2024-02-21T05:25:42;10.68;;;9.60;;
48199;SDS011;33990;44.602;10.976;2024-02-21T05:28:10;10.30;;;8.95;;
48199;SDS011;33990;44.602;10.976;2024-02-21T05:30:37;9.02;;;8.13;;
48199;SDS011;33990;44.602;10.976;2024-02-21T05:33:05;9.68;;;8.73;;
48199;SDS011;33990;44.602;10.976;2024-02-21T05:35:34;10.18;;;8.98;;
48199;SDS011;33990;44.602;10.976;2024-02-21T05:38:03;9.15;;;7.90;;
48199;SDS011;33990;44.602;10.976;2024-02-21T05:40:38;8.98;;;8.07;;
48199;SDS011;33990;44.602;10.976;2024-02-21T05:43:09;8.35;;;7.32;;
48199;SDS011;33990;44.602;10.976;2024-02-21T05:45:36;8.95;;;7.82;;
48199;SDS011;33990;44.602;10.976;2024-02-21T05:48:04;8.23;;;7.40;;
48199;SDS011;33990;44.602;10.976;2024-02-21T05:50:32;8.57;;;7.68;;
48199;SDS011;33990;44.602;10.976;2024-02-21T05:52:59;9.57;;;7.63;;
48199;SDS011;33990;44.602;10.976;2024-02-21T05:55:27;9.23;;;8.32;;
48199;SDS011;33990;44.602;10.976;2024-02-21T05:57:55;8.88;;;7.65;;
48199;SDS011;33990;44.602;10.976;2024-02-21T06:00:23;8.93;;;8.00;;
48199;SDS011;33990;44.602;10.976;2024-02-21T06:02:50;8.70;;;7.80;;
48199;SDS011;33990;44.602;10.976;2024-02-21T06:05:17;8.77;;;7.90;;
48199;SDS011;33990;44.602;10.976;2024-02-21T06:07:45;9.68;;;8.18;;
48199;SDS011;33990;44.602;10.976;2024-02-21T06:10:13;9.18;;;8.27;;
48199;SDS011;33990;44.602;10.976;2024-02-21T06:12:40;11.45;;;8.88;;
48199;SDS011;33990;44.602;10.976;2024-02-21T06:15:08;8.82;;;7.93;;
48199;SDS011;33990;44.602;10.976;2024-02-21T06:17:36;11.25;;;9.07;;
48199;SDS011;33990;44.602;10.976;2024-02-21T06:20:03;10.02;;;8.48;;
48199;SDS011;33990;44.602;10.976;2024-02-21T06:22:31;10.35;;;9.00;;
48199;SDS011;33990;44.602;10.976;2024-02-21T06:24:59;10.73;;;9.13;;
48199;SDS011;33990;44.602;10.976;2024-02-21T06:27:26;12.73;;;10.50;;
48199;SDS011;33990;44.602;10.976;2024-02-21T06:29:53;14.23;;;10.65;;
48199;SDS011;33990;44.602;10.976;2024-02-21T06:32:21;12.57;;;9.45;;
48199;SDS011;33990;44.602;10.976;2024-02-21T06:34:48;11.48;;;10.18;;
48199;SDS011;33990;44.602;10.976;2024-02-21T06:37:15;13.07;;;10.45;;
48199;SDS011;33990;44.602;10.976;2024-02-21T06:39:43;12.73;;;9.90;;
48199;SDS011;33990;44.602;10.976;2024-02-21T06:42:11;15.00;;;11.43;;
48199;SDS011;33990;44.602;10.976;2024-02-21T06:44:38;11.02;;;9.70;;
48199;SDS011;33990;44.602;10.976;2024-02-21T06:47:07;10.98;;;9.60;;
48199;SDS011;33990;44.602;10.976;2024-02-21T06:49:38;11.65;;;10.10;;
48199;SDS011;33990;44.602;10.976;2024-02-21T06:52:06;11.13;;;9.95;;
48199;SDS011;33990;44.602;10.976;2024-02-21T06:54:33;13.63;;;10.82;;
48199;SDS011;33990;44.602;10.976;2024-02-21T06:57:00;10.57;;;9.45;;
48199;SDS011;33990;44.602;10.976;2024-02-21T06:59:28;12.88;;;11.07;;
48199;SDS011;33990;44.602;10.976;2024-02-21T07:01:55;12.40;;;10.57;;
48199;SDS011;33990;44.602;10.976;2024-02-21T07:04:23;11.45;;;9.35;;
48199;SDS011;33990;44.602;10.976;2024-02-21T07:06:51;11.70;;;9.57;;
48199;SDS011;33990;44.602;10.976;2024-02-21T07:09:18;11.82;;;9.70;;
48199;SDS011;33990;44.602;10.976;2024-02-21T07:11:45;12.65;;;10.55;;
48199;SDS011;33990;44.602;10.976;2024-02-21T07:14:16;12.05;;;9.45;;
48199;SDS011;33990;44.602;10.976;2024-02-21T07:16:43;10.00;;;8.55;;
48199;SDS011;33990;44.602;10.976;2024-02-21T07:19:10;9.80;;;8.63;;
48199;SDS011;33990;44.602;10.976;2024-02-21T07:21:38;11.80;;;9.48;;
48199;SDS011;33990;44.602;10.976;2024-02-21T07:24:08;12.05;;;9.60;;
48199;SDS011;33990;44.602;10.976;2024-02-21T07:26:35;10.23;;;9.15;;
48199;SDS011;33990;44.602;10.976;2024-02-21T07:29:03;12.68;;;10.02;;
48199;SDS011;33990;44.602;10.976;2024-02-21T07:31:30;11.65;;;9.95;;
48199;SDS011;33990;44.602;10.976;2024-02-21T07:33:57;11.93;;;9.45;;
48199;SDS011;33990;44.602;10.976;2024-02-21T07:36:28;13.40;;;10.10;;
48199;SDS011;33990;44.602;10.976;2024-02-21T07:38:59;10.88;;;9.65;;
48199;SDS011;33990;44.602;10.976;2024-02-21T07:41:27;11.45;;;9.90;;
48199;SDS011;33990;44.602;10.976;2024-02-21T07:43:57;13.30;;;10.27;;
48199;SDS011;33990;44.602;10.976;2024-02-21T07:46:25;11.02;;;9.45;;
48199;SDS011;33990;44.602;10.976;2024-02-21T07:48:52;11.05;;;9.13;;
48199;SDS011;33990;44.602;10.976;2024-02-21T07:51:20;11.13;;;9.77;;
48199;SDS011;33990;44.602;10.976;2024-02-21T07:53:47;10.35;;;8.70;;
48199;SDS011;33990;44.602;10.976;2024-02-21T07:56:15;11.25;;;9.63;;
48199;SDS011;33990;44.602;10.976;2024-02-21T07:58:43;12.13;;;9.85;;
48199;SDS011;33990;44.602;10.976;2024-02-21T08:01:10;12.23;;;8.85;;
48199;SDS011;33990;44.602;10.976;2024-02-21T08:03:38;12.32;;;8.63;;
48199;SDS011;33990;44.602;10.976;2024-02-21T08:06:05;9.95;;;8.88;;
48199;SDS011;33990;44.602;10.976;2024-02-21T08:08:38;12.18;;;9.27;;
48199;SDS011;33990;44.602;10.976;2024-02-21T08:11:06;11.23;;;9.32;;
48199;SDS011;33990;44.602;10.976;2024-02-21T08:13:34;11.90;;;9.13;;
48199;SDS011;33990;44.602;10.976;2024-02-21T08:16:01;10.27;;;8.05;;
48199;SDS011;33990;44.602;10.976;2024-02-21T08:18:30;12.85;;;9.23;;
48199;SDS011;33990;44.602;10.976;2024-02-21T08:20:57;10.82;;;9.43;;
48199;SDS011;33990;44.602;10.976;2024-02-21T08:23:25;12.07;;;9.35;;
48199;SDS011;33990;44.602;10.976;2024-02-21T08:25:52;11.68;;;8.95;;
48199;SDS011;33990;44.602;10.976;2024-02-21T08:28:20;10.85;;;9.23;;
48199;SDS011;33990;44.602;10.976;2024-02-21T08:30:47;11.02;;;7.85;;
48199;SDS011;33990;44.602;10.976;2024-02-21T08:33:15;10.48;;;8.32;;
48199;SDS011;33990;44.602;10.976;2024-02-21T08:35:43;12.52;;;8.68;;
48199;SDS011;33990;44.602;10.976;2024-02-21T08:38:11;10.18;;;7.72;;
48199;SDS011;33990;44.602;10.976;2024-02-21T08:40:38;9.02;;;8.13;;
48199;SDS011;33990;44.602;10.976;2024-02-21T08:43:06;10.55;;;8.57;;
48199;SDS011;33990;44.602;10.976;2024-02-21T08:45:33;10.85;;;8.13;;
48199;SDS011;33990;44.602;10.976;2024-02-21T08:48:01;8.35;;;7.45;;
48199;SDS011;33990;44.602;10.976;2024-02-21T08:50:29;9.90;;;7.93;;
48199;SDS011;33990;44.602;10.976;2024-02-21T08:52:56;10.43;;;7.75;;
48199;SDS011;33990;44.602;10.976;2024-02-21T08:55:25;9.23;;;8.23;;
48199;SDS011;33990;44.602;10.976;2024-02-21T08:57:53;9.93;;;7.18;;
48199;SDS011;33990;44.602;10.976;2024-02-21T09:00:20;10.27;;;7.38;;
48199;SDS011;33990;44.602;10.976;2024-02-21T09:02:54;8.73;;;7.18;;
48199;SDS011;33990;44.602;10.976;2024-02-21T09:05:23;7.55;;;6.75;;
48199;SDS011;33990;44.602;10.976;2024-02-21T09:07:52;9.65;;;6.97;;
48199;SDS011;33990;44.602;10.976;2024-02-21T09:10:20;9.35;;;7.22;;
48199;SDS011;33990;44.602;10.976;2024-02-21T09:12:48;8.05;;;6.68;;
48199;SDS011;33990;44.602;10.976;2024-02-21T09:15:15;10.77;;;7.13;;
48199;SDS011;33990;44.602;10.976;2024-02-21T09:17:43;10.15;;;7.60;;
48199;SDS011;33990;44.602;10.976;2024-02-21T09:20:12;7.78;;;6.57;;
48199;SDS011;33990;44.602;10.976;2024-02-21T09:22:40;8.98;;;7.30;;
48199;SDS011;33990;44.602;10.976;2024-02-21T09:25:08;7.75;;;6.38;;
48199;SDS011;33990;44.602;10.976;2024-02-21T09:27:38;7.95;;;6.30;;
48199;SDS011;33990;44.602;10.976;2024-02-21T09:30:06;7.60;;;6.38;;
48199;SDS011;33990;44.602;10.976;2024-02-21T09:32:34;7.85;;;6.63;;
48199;SDS011;33990;44.602;10.976;2024-02-21T09:35:02;6.88;;;6.18;;
48199;SDS011;33990;44.602;10.976;2024-02-21T09:37:30;7.90;;;6.35;;
48199;SDS011;33990;44.602;10.976;2024-02-21T09:39:58;8.15;;;6.78;;
48199;SDS011;33990;44.602;10.976;2024-02-21T09:42:37;8.50;;;6.93;;
48199;SDS011;33990;44.602;10.976;2024-02-21T09:45:10;9.10;;;6.50;;
48199;SDS011;33990;44.602;10.976;2024-02-21T09:51:03;9.88;;;6.45;;
48199;SDS011;33990;44.602;10.976;2024-02-21T09:53:31;10.65;;;7.55;;
48199;SDS011;33990;44.602;10.976;2024-02-21T09:56:01;11.00;;;6.72;;
48199;SDS011;33990;44.602;10.976;2024-02-21T09:58:29;12.02;;;7.90;;
48199;SDS011;33990;44.602;10.976;2024-02-21T10:00:56;10.48;;;8.00;;
48199;SDS011;33990;44.602;10.976;2024-02-21T10:03:25;11.90;;;8.73;;
48199;SDS011;33990;44.602;10.976;2024-02-21T10:05:53;11.13;;;8.45;;
48199;SDS011;33990;44.602;10.976;2024-02-21T10:08:20;10.32;;;8.25;;
48199;SDS011;33990;44.602;10.976;2024-02-21T10:10:48;11.80;;;9.18;;
48199;SDS011;33990;44.602;10.976;2024-02-21T10:13:26;11.27;;;8.57;;
48199;SDS011;33990;44.602;10.976;2024-02-21T10:16:04;11.70;;;9.60;;
48199;SDS011;33990;44.602;10.976;2024-02-21T10:18:33;10.98;;;8.75;;
48199;SDS011;33990;44.602;10.976;2024-02-21T10:21:01;9.95;;;8.38;;
48199;SDS011;33990;44.602;10.976;2024-02-21T10:26:14;9.38;;;8.30;;
48199;SDS011;33990;44.602;10.976;2024-02-21T10:28:42;13.48;;;9.73;;
48199;SDS011;33990;44.602;10.976;2024-02-21T10:31:20;11.25;;;9.88;;
48199;SDS011;33990;44.602;10.976;2024-02-21T10:34:00;12.77;;;10.00;;
48199;SDS011;33990;44.602;10.976;2024-02-21T10:36:30;11.70;;;9.93;;
48199;SDS011;33990;44.602;10.976;2024-02-21T10:38:58;11.13;;;9.18;;
48199;SDS011;33990;44.602;10.976;2024-02-21T10:41:25;11.20;;;9.15;;
48199;SDS011;33990;44.602;10.976;2024-02-21T10:43:55;12.68;;;10.27;;
48199;SDS011;33990;44.602;10.976;2024-02-21T10:46:23;17.15;;;13.98;;
48199;SDS011;33990;44.602;10.976;2024-02-21T10:49:01;19.35;;;16.13;;
48199;SDS011;33990;44.602;10.976;2024-02-21T10:51:34;16.73;;;13.52;;
48199;SDS011;33990;44.602;10.976;2024-02-21T10:56:59;18.77;;;16.17;;
48199;SDS011;33990;44.602;10.976;2024-02-21T10:59:30;19.52;;;16.00;;
48199;SDS011;33990;44.602;10.976;2024-02-21T11:01:59;17.45;;;14.35;;
48199;SDS011;33990;44.602;10.976;2024-02-21T11:04:27;14.02;;;11.82;;
48199;SDS011;33990;44.602;10.976;2024-02-21T11:06:55;15.13;;;12.57;;
48199;SDS011;33990;44.602;10.976;2024-02-21T11:09:30;16.85;;;12.77;;
48199;SDS011;33990;44.602;10.976;2024-02-21T11:12:03;15.38;;;13.50;;
48199;SDS011;33990;44.602;10.976;2024-02-21T11:14:32;14.32;;;12.75;;
48199;SDS011;33990;44.602;10.976;2024-02-21T11:17:14;15.88;;;12.60;;
48199;SDS011;33990;44.602;10.976;2024-02-21T11:19:45;14.95;;;12.80;;
48199;SDS011;33990;44.602;10.976;2024-02-21T11:22:14;17.88;;;15.95;;
48199;SDS011;33990;44.602;10.976;2024-02-21T11:24:44;20.60;;;16.45;;
48199;SDS011;33990;44.602;10.976;2024-02-21T11:27:15;17.20;;;14.75;;
48199;SDS011;33990;44.602;10.976;2024-02-21T11:29:49;15.50;;;13.48;;
48199;SDS011;33990;44.602;10.976;2024-02-21T11:34:55;17.73;;;13.80;;
48199;SDS011;33990;44.602;10.976;2024-02-21T11:37:26;14.63;;;12.63;;
48199;SDS011;33990;44.602;10.976;2024-02-21T11:39:55;15.68;;;12.05;;
48199;SDS011;33990;44.602;10.976;2024-02-21T11:42:26;17.35;;;11.63;;
48199;SDS011;33990;44.602;10.976;2024-02-21T11:44:56;14.50;;;12.47;;
48199;SDS011;33990;44.602;10.976;2024-02-21T11:47:24;12.10;;;10.85;;
48199;SDS011;33990;44.602;10.976;2024-02-21T11:49:52;14.90;;;11.60;;
48199;SDS011;33990;44.602;10.976;2024-02-21T11:52:23;12.18;;;10.73;;
48199;SDS011;33990;44.602;10.976;2024-02-21T11:54:53;13.63;;;12.02;;
48199;SDS011;33990;44.602;10.976;2024-02-21T11:57:23;12.60;;;11.23;;
48199;SDS011;33990;44.602;10.976;2024-02-21T11:59:51;14.77;;;12.00;;
48199;SDS011;33990;44.602;10.976;2024-02-21T12:02:26;14.27;;;11.05;;
48199;SDS011;33990;44.602;10.976;2024-02-21T12:04:54;15.48;;;12.25;;
48199;SDS011;33990;44.602;10.976;2024-02-21T12:07:22;13.77;;;12.13;;
48199;SDS011;33990;44.602;10.976;2024-02-21T12:09:51;12.68;;;10.73;;
48199;SDS011;33990;44.602;10.976;2024-02-21T12:12:20;14.18;;;11.27;;
48199;SDS011;33990;44.602;10.976;2024-02-21T12:14:53;13.60;;;10.82;;
48199;SDS011;33990;44.602;10.976;2024-02-21T12:17:22;12.82;;;11.32;;
48199;SDS011;33990;44.602;10.976;2024-02-21T12:19:50;13.60;;;11.35;;
48199;SDS011;33990;44.602;10.976;2024-02-21T12:22:18;12.55;;;10.85;;
48199;SDS011;33990;44.602;10.976;2024-02-21T12:24:46;11.75;;;9.75;;
48199;SDS011;33990;44.602;10.976;2024-02-21T12:27:14;11.27;;;10.07;;
48199;SDS011;33990;44.602;10.976;2024-02-21T12:29:42;13.45;;;10.18;;
48199;SDS011;33990;44.602;10.976;2024-02-21T12:32:09;11.38;;;9.98;;
48199;SDS011;33990;44.602;10.976;2024-02-21T12:34:37;10.90;;;8.02;;
48199;SDS011;33990;44.602;10.976;2024-02-21T12:37:21;9.32;;;8.18;;
48199;SDS011;33990;44.602;10.976;2024-02-21T12:39:49;8.73;;;7.25;;
48199;SDS011;33990;44.602;10.976;2024-02-21T12:42:16;8.90;;;7.10;;
48199;SDS011;33990;44.602;10.976;2024-02-21T12:44:44;8.20;;;7.25;;
48199;SDS011;33990;44.602;10.976;2024-02-21T12:47:13;9.10;;;6.95;;
48199;SDS011;33990;44.602;10.976;2024-02-21T12:49:40;9.05;;;7.30;;
48199;SDS011;33990;44.602;10.976;2024-02-21T12:52:12;9.40;;;7.35;;
48199;SDS011;33990;44.602;10.976;2024-02-21T12:54:40;10.32;;;7.50;;
48199;SDS011;33990;44.602;10.976;2024-02-21T12:57:09;7.85;;;6.43;;
48199;SDS011;33990;44.602;10.976;2024-02-21T12:59:37;9.15;;;6.40;;
48199;SDS011;33990;44.602;10.976;2024-02-21T13:02:06;8.40;;;6.80;;
48199;SDS011;33990;44.602;10.976;2024-02-21T13:04:35;7.65;;;5.82;;
48199;SDS011;33990;44.602;10.976;2024-02-21T13:07:03;8.20;;;6.07;;
48199;SDS011;33990;44.602;10.976;2024-02-21T13:09:30;6.95;;;5.60;;
48199;SDS011;33990;44.602;10.976;2024-02-21T13:11:58;6.30;;;5.65;;
48199;SDS011;33990;44.602;10.976;2024-02-21T13:14:25;7.00;;;5.45;;
48199;SDS011;33990;44.602;10.976;2024-02-21T13:16:53;8.15;;;6.00;;
48199;SDS011;33990;44.602;10.976;2024-02-21T13:19:20;7.75;;;6.40;;
48199;SDS011;33990;44.602;10.976;2024-02-21T13:21:48;8.07;;;6.38;;
48199;SDS011;33990;44.602;10.976;2024-02-21T13:24:15;8.38;;;5.72;;
48199;SDS011;33990;44.602;10.976;2024-02-21T13:26:43;7.28;;;5.88;;
48199;SDS011;33990;44.602;10.976;2024-02-21T13:29:10;6.55;;;5.55;;
48199;SDS011;33990;44.602;10.976;2024-02-21T13:31:37;6.90;;;5.43;;
48199;SDS011;33990;44.602;10.976;2024-02-21T13:34:05;5.45;;;4.82;;
48199;SDS011;33990;44.602;10.976;2024-02-21T13:36:36;6.28;;;5.55;;
48199;SDS011;33990;44.602;10.976;2024-02-21T13:39:03;5.93;;;5.00;;
48199;SDS011;33990;44.602;10.976;2024-02-21T13:41:35;6.47;;;5.05;;
48199;SDS011;33990;44.602;10.976;2024-02-21T13:44:02;6.35;;;5.20;;
48199;SDS011;33990;44.602;10.976;2024-02-21T13:46:31;6.85;;;5.43;;
48199;SDS011;33990;44.602;10.976;2024-02-21T13:49:02;6.22;;;5.13;;
48199;SDS011;33990;44.602;10.976;2024-02-21T13:51:34;6.82;;;5.03;;
48199;SDS011;33990;44.602;10.976;2024-02-21T13:54:05;6.68;;;5.10;;
48199;SDS011;33990;44.602;10.976;2024-02-21T13:56:36;5.10;;;4.60;;
48199;SDS011;33990;44.602;10.976;2024-02-21T13:59:04;7.22;;;5.10;;
48199;SDS011;33990;44.602;10.976;2024-02-21T14:01:32;6.47;;;4.95;;
48199;SDS011;33990;44.602;10.976;2024-02-21T14:04:00;5.60;;;4.93;;
48199;SDS011;33990;44.602;10.976;2024-02-21T14:06:27;6.43;;;4.57;;
48199;SDS011;33990;44.602;10.976;2024-02-21T14:08:55;5.88;;;5.28;;
48199;SDS011;33990;44.602;10.976;2024-02-21T14:11:22;6.88;;;4.82;;
48199;SDS011;33990;44.602;10.976;2024-02-21T14:13:50;7.43;;;4.93;;
48199;SDS011;33990;44.602;10.976;2024-02-21T14:16:18;4.90;;;4.30;;
48199;SDS011;33990;44.602;10.976;2024-02-21T14:22:13;5.93;;;5.10;;
48199;SDS011;33990;44.602;10.976;2024-02-21T14:25:14;6.40;;;5.40;;
48199;SDS011;33990;44.602;10.976;2024-02-21T14:27:56;5.93;;;4.78;;
48199;SDS011;33990;44.602;10.976;2024-02-21T14:30:31;5.65;;;5.05;;
48199;SDS011;33990;44.602;10.976;2024-02-21T14:33:11;6.15;;;4.90;;
48199;SDS011;33990;44.602;10.976;2024-02-21T14:35:41;6.13;;;5.00;;
48199;SDS011;33990;44.602;10.976;2024-02-21T14:38:09;6.30;;;5.35;;
48199;SDS011;33990;44.602;10.976;2024-02-21T14:40:37;6.95;;;5.18;;